Aviation Digital Data Service (ADDS)

Output produced by METARs form (2012 UTC 26 November 2014)
found at http://aviationweather.gov/adds/metars/
 
KISP 261901Z 2619/2718 02016G22KT 2SM -RA BR OVC006 
     TEMPO 2620/2622 1 1/2SM -RAPL 
     FM262200 01024G35KT 1SM -SNRA OVC004 
     TEMPO 2622/2702 1SM -SNRAPL 
     FM270400 33018G28KT 6SM -RASN OVC015 
     FM270800 32013KT P6SM BKN025 
     FM271100 31008KT P6SM BKN030